createdAt,value
2022-10-03T00:03:13.002Z,95475
2022-10-03T00:06:38.324Z,95474
2022-10-03T00:10:03.766Z,95477
2022-10-03T00:13:29.149Z,95482
2022-10-03T00:16:54.552Z,95477
2022-10-03T00:20:19.969Z,95482
2022-10-03T00:23:45.362Z,95489
2022-10-03T00:27:10.775Z,95494
2022-10-03T00:30:36.231Z,95495
2022-10-03T00:34:01.604Z,95505
2022-10-03T00:37:27.151Z,95512
2022-10-03T00:40:52.552Z,95516
2022-10-03T00:44:17.966Z,95518
2022-10-03T00:47:43.363Z,95517
2022-10-03T00:51:08.746Z,95523
2022-10-03T00:54:34.185Z,95520
2022-10-03T00:57:59.609Z,95526
2022-10-03T01:01:25.083Z,95524
2022-10-03T01:04:50.539Z,95525
2022-10-03T01:08:15.871Z,95526
2022-10-03T01:11:41.652Z,95532
2022-10-03T01:15:06.764Z,95532
2022-10-03T01:18:32.287Z,95536
2022-10-03T01:21:57.786Z,95534
2022-10-03T01:25:23.168Z,95531
2022-10-03T01:28:48.575Z,95530
2022-10-03T01:32:13.953Z,95533
2022-10-03T01:35:39.346Z,95534
2022-10-03T01:39:04.803Z,95532
2022-10-03T01:42:30.199Z,95534
2022-10-03T01:45:55.593Z,95529
2022-10-03T01:49:20.998Z,95535
2022-10-03T01:52:46.443Z,95534
2022-10-03T01:56:11.873Z,95539
2022-10-03T01:59:37.333Z,95545
2022-10-03T02:03:02.779Z,95550
2022-10-03T02:06:28.174Z,95551
2022-10-03T02:09:53.581Z,95555
2022-10-03T02:13:19.007Z,95551
2022-10-03T02:16:44.401Z,95554
2022-10-03T02:20:09.792Z,95557
2022-10-03T02:23:35.201Z,95561
2022-10-03T02:27:00.618Z,95561
2022-10-03T02:30:26.055Z,95558
2022-10-03T02:33:51.432Z,95566
2022-10-03T02:37:16.894Z,95568
2022-10-03T02:40:42.300Z,95567
2022-10-03T02:44:07.796Z,95570
2022-10-03T02:47:33.251Z,95564
2022-10-03T02:50:58.641Z,95576
2022-10-03T02:54:24.060Z,95574
2022-10-03T02:57:49.531Z,95574
2022-10-03T03:01:14.960Z,95577
2022-10-03T03:04:40.312Z,95576
2022-10-03T03:08:05.727Z,95581
2022-10-03T03:11:31.144Z,95591
2022-10-03T03:14:56.534Z,95587
2022-10-03T03:18:21.924Z,95590
2022-10-03T03:21:47.491Z,95589
2022-10-03T03:25:12.846Z,95591
2022-10-03T03:28:38.273Z,95591
2022-10-03T03:32:03.674Z,95597
2022-10-03T03:35:29.144Z,95595
2022-10-03T03:38:54.575Z,95604
2022-10-03T03:42:19.936Z,95611
2022-10-03T03:45:45.410Z,95607
2022-10-03T03:49:10.774Z,95610
2022-10-03T03:52:36.257Z,95608
2022-10-03T03:56:01.771Z,95612
2022-10-03T03:59:27.713Z,95613
2022-10-03T04:02:53.148Z,95615
2022-10-03T04:06:18.614Z,95612
2022-10-03T04:09:44.125Z,95615
2022-10-03T04:13:09.608Z,95605
2022-10-03T04:16:35.073Z,95607
2022-10-03T04:20:00.545Z,95617
2022-10-03T04:23:25.939Z,95612
2022-10-03T04:26:51.461Z,95616
2022-10-03T04:30:16.896Z,95612
2022-10-03T04:33:42.374Z,95606
2022-10-03T04:37:07.801Z,95602
2022-10-03T04:40:33.220Z,95602
2022-10-03T04:43:58.670Z,95611
2022-10-03T04:47:24.122Z,95603
2022-10-03T04:50:49.515Z,95606
2022-10-03T04:54:14.683Z,95609
2022-10-03T04:57:39.867Z,95606
2022-10-03T05:01:05.086Z,95608
2022-10-03T05:04:30.272Z,95612
2022-10-03T05:07:55.454Z,95616
2022-10-03T05:11:20.662Z,95613
2022-10-03T05:14:45.826Z,95619
2022-10-03T05:18:11.022Z,95610
2022-10-03T05:21:36.497Z,95613
2022-10-03T05:25:01.371Z,95614
2022-10-03T05:28:26.837Z,95617
2022-10-03T05:31:51.808Z,95621
2022-10-03T05:35:17.185Z,95616
2022-10-03T05:38:42.363Z,95616
2022-10-03T05:42:21.892Z,95618
2022-10-03T05:45:32.742Z,95621
2022-10-03T05:48:57.869Z,95617
2022-10-03T05:52:23.045Z,95626
2022-10-03T05:55:48.244Z,95637
2022-10-03T05:59:13.358Z,95643
2022-10-03T06:02:38.693Z,95645
2022-10-03T06:06:03.798Z,95649
2022-10-03T06:09:28.926Z,95655
2022-10-03T06:12:54.215Z,95658
2022-10-03T06:16:19.312Z,95662
2022-10-03T06:19:44.475Z,95666
2022-10-03T06:23:09.654Z,95663
2022-10-03T06:26:34.814Z,95672
2022-10-03T06:30:00.012Z,95673
2022-10-03T06:33:25.164Z,95672
2022-10-03T06:36:50.347Z,95679
2022-10-03T06:40:15.526Z,95686
2022-10-03T06:43:40.695Z,95687
2022-10-03T06:47:06.018Z,95695
2022-10-03T06:50:31.183Z,95695
2022-10-03T06:53:56.332Z,95699
2022-10-03T06:57:21.489Z,95711
2022-10-03T07:00:46.680Z,95707
2022-10-03T07:04:11.860Z,95704
2022-10-03T07:07:37.022Z,95708
2022-10-03T07:11:02.179Z,95707
2022-10-03T07:14:27.346Z,95712
2022-10-03T07:17:52.516Z,95717
2022-10-03T07:21:17.713Z,95715
2022-10-03T07:24:42.863Z,95714
2022-10-03T07:28:08.083Z,95715
2022-10-03T07:31:33.199Z,95718
2022-10-03T07:34:58.378Z,95723
2022-10-03T07:38:23.539Z,95726
2022-10-03T07:41:48.710Z,95735
2022-10-03T07:45:13.879Z,95741
2022-10-03T07:48:39.058Z,95746
2022-10-03T07:52:04.247Z,95756
2022-10-03T07:55:29.422Z,95753
2022-10-03T07:58:54.550Z,95751
2022-10-03T08:02:19.745Z,95748
2022-10-03T08:05:44.915Z,95755
2022-10-03T08:09:10.089Z,95755
2022-10-03T08:12:35.269Z,95755
2022-10-03T08:16:00.479Z,95753
2022-10-03T08:19:25.614Z,95751
2022-10-03T08:22:50.784Z,95760
2022-10-03T08:26:15.994Z,95765
2022-10-03T08:29:41.218Z,95767
2022-10-03T08:33:06.395Z,95773
2022-10-03T08:36:31.538Z,95777
2022-10-03T08:39:56.728Z,95766
2022-10-03T08:43:21.903Z,95769
2022-10-03T08:46:47.123Z,95765
2022-10-03T08:50:12.244Z,95768
2022-10-03T08:53:37.407Z,95770
2022-10-03T08:57:02.584Z,95777
2022-10-03T09:00:27.753Z,95774
2022-10-03T09:03:53.034Z,95771
2022-10-03T09:07:19.092Z,95768
2022-10-03T09:10:43.309Z,95774
2022-10-03T09:14:08.469Z,95771
2022-10-03T09:17:33.650Z,95766
2022-10-03T09:20:58.849Z,95765
2022-10-03T09:24:23.984Z,95770
2022-10-03T09:27:49.211Z,95765
2022-10-03T09:31:14.365Z,95760
2022-10-03T09:34:39.488Z,95763
2022-10-03T09:38:04.702Z,95768
2022-10-03T09:41:29.841Z,95766
2022-10-03T09:44:55.002Z,95772
2022-10-03T09:48:20.176Z,95770
2022-10-03T09:51:45.352Z,95778
2022-10-03T09:55:10.550Z,95772
2022-10-03T09:58:35.682Z,95770
2022-10-03T10:02:00.860Z,95769
2022-10-03T10:05:26.018Z,95776
2022-10-03T10:08:51.189Z,95772
2022-10-03T10:12:16.382Z,95773
2022-10-03T10:15:41.532Z,95775
2022-10-03T10:19:06.711Z,95779
2022-10-03T10:22:31.892Z,95776
2022-10-03T10:25:57.040Z,95774
2022-10-03T10:29:22.225Z,95779
2022-10-03T10:32:47.374Z,95776
2022-10-03T10:36:12.540Z,95774
2022-10-03T10:39:37.716Z,95767
2022-10-03T10:43:02.879Z,95765
2022-10-03T10:46:28.093Z,95768
2022-10-03T10:49:53.225Z,95760
2022-10-03T10:53:18.410Z,95766
2022-10-03T10:56:43.840Z,95767
2022-10-03T11:00:08.775Z,95767
2022-10-03T11:03:35.789Z,95768
2022-10-03T11:07:03.744Z,95774
2022-10-03T11:10:29.264Z,95780
2022-10-03T11:13:54.482Z,95783
2022-10-03T11:17:19.679Z,95777
2022-10-03T11:20:44.880Z,95780
2022-10-03T11:24:10.014Z,95778
2022-10-03T11:27:35.194Z,95779
2022-10-03T11:31:00.384Z,95774
2022-10-03T11:34:25.556Z,95772
2022-10-03T11:37:50.750Z,95784
2022-10-03T11:41:15.914Z,95781
2022-10-03T11:44:41.092Z,95780
2022-10-03T11:48:06.272Z,95779
2022-10-03T11:51:31.477Z,95786
2022-10-03T11:54:56.670Z,95784
2022-10-03T11:58:21.836Z,95785
2022-10-03T12:01:50.865Z,95777
2022-10-03T12:05:12.246Z,95773
2022-10-03T12:08:37.432Z,95767
2022-10-03T12:12:02.649Z,95768
2022-10-03T12:15:27.822Z,95764
2022-10-03T12:18:53.072Z,95758
2022-10-03T12:22:18.242Z,95758
2022-10-03T12:25:43.440Z,95764
2022-10-03T12:29:08.755Z,95766
2022-10-03T12:32:33.813Z,95767
2022-10-03T12:35:59.051Z,95775
2022-10-03T12:39:24.226Z,95783
2022-10-03T12:42:49.414Z,95776
2022-10-03T12:46:14.696Z,95780
2022-10-03T12:49:39.796Z,95775
2022-10-03T12:53:04.987Z,95773
2022-10-03T12:56:30.176Z,95770
2022-10-03T12:59:55.385Z,95762
2022-10-03T13:03:20.627Z,95768
2022-10-03T13:07:02.677Z,95766
2022-10-03T13:10:10.996Z,95772
2022-10-03T13:13:36.204Z,95772
2022-10-03T13:17:01.404Z,95775
2022-10-03T13:20:26.857Z,95774
2022-10-03T13:23:52.031Z,95770
2022-10-03T13:27:17.216Z,95769
2022-10-03T13:30:42.424Z,95773
2022-10-03T13:34:07.606Z,95774
2022-10-03T13:37:32.797Z,95773
2022-10-03T13:40:57.961Z,95773
2022-10-03T13:44:23.141Z,95778
2022-10-03T13:47:48.311Z,95776
2022-10-03T13:51:13.516Z,95775
2022-10-03T13:54:38.724Z,95767
2022-10-03T13:58:03.872Z,95765
2022-10-03T14:01:29.076Z,95766
2022-10-03T14:04:54.223Z,95763
2022-10-03T14:08:19.406Z,95764
2022-10-03T14:11:44.628Z,95765
2022-10-03T14:15:09.793Z,95763
2022-10-03T14:18:34.967Z,95762
2022-10-03T14:22:00.176Z,95766
2022-10-03T14:25:25.334Z,95766
2022-10-03T14:28:50.559Z,95768
2022-10-03T15:05:10.308Z,95747
2022-10-03T15:08:35.477Z,95754
2022-10-03T15:12:00.631Z,95749
2022-10-03T15:15:25.791Z,95747
2022-10-03T15:18:50.974Z,95746
2022-10-03T15:22:16.158Z,95742
2022-10-03T15:25:41.322Z,95734
2022-10-03T15:29:06.526Z,95731
2022-10-03T15:32:31.698Z,95733
2022-10-03T15:35:56.890Z,95738
2022-10-03T15:39:22.119Z,95735
2022-10-03T15:42:47.343Z,95730
2022-10-03T15:46:12.639Z,95732
2022-10-03T15:49:37.722Z,95736
2022-10-03T15:53:18.034Z,95733
2022-10-03T15:56:28.176Z,95738
2022-10-03T15:59:53.364Z,95743
2022-10-03T16:03:18.617Z,95742
2022-10-03T16:06:43.774Z,95740
2022-10-03T16:10:08.937Z,95741
2022-10-03T16:13:34.160Z,95741
2022-10-03T16:16:59.339Z,95737
2022-10-03T16:20:24.527Z,95736
2022-10-03T16:23:49.905Z,95738
2022-10-03T16:27:16.330Z,95734
2022-10-03T16:30:41.510Z,95736
2022-10-03T16:34:06.744Z,95736
2022-10-03T16:37:31.938Z,95739
2022-10-03T16:40:57.117Z,95741
2022-10-03T16:44:22.332Z,95735
2022-10-03T16:47:47.573Z,95739
2022-10-03T16:51:12.716Z,95739
2022-10-03T16:54:37.920Z,95743
2022-10-03T16:58:03.101Z,95748
2022-10-03T17:01:28.413Z,95750
2022-10-03T17:04:53.483Z,95744
2022-10-03T17:08:40.492Z,95743
2022-10-03T17:11:43.854Z,95743
2022-10-03T17:15:09.010Z,95745
2022-10-03T17:18:34.188Z,95745
2022-10-03T17:21:59.401Z,95749
2022-10-03T17:25:24.555Z,95751
2022-10-03T17:28:49.700Z,95753
2022-10-03T17:32:14.892Z,95753
2022-10-03T17:35:40.075Z,95753
2022-10-03T17:39:05.250Z,95748
2022-10-03T17:42:30.403Z,95744
2022-10-03T17:45:55.606Z,95740
2022-10-03T17:49:20.742Z,95738
2022-10-03T17:52:45.946Z,95735
2022-10-03T17:56:11.165Z,95735
2022-10-03T17:59:38.708Z,95725
2022-10-03T18:03:01.563Z,95723
2022-10-03T18:06:26.764Z,95727
2022-10-03T18:09:51.956Z,95739
2022-10-03T18:13:17.123Z,95742
2022-10-03T18:16:42.334Z,95744
2022-10-03T18:20:07.526Z,95748
2022-10-03T18:23:53.539Z,95745
2022-10-03T18:26:57.919Z,95743
2022-10-03T18:30:23.102Z,95743
2022-10-03T18:33:48.227Z,95744
2022-10-03T18:37:13.417Z,95749
2022-10-03T18:40:38.594Z,95750
2022-10-03T18:44:03.787Z,95752
2022-10-03T18:47:29.031Z,95754
2022-10-03T18:50:54.227Z,95755
2022-10-03T18:54:19.444Z,95754
2022-10-03T18:57:44.642Z,95750
2022-10-03T19:01:09.988Z,95754
2022-10-03T19:04:35.061Z,95750
2022-10-03T19:08:00.503Z,95741
2022-10-03T19:11:25.744Z,95735
2022-10-03T19:14:51.014Z,95738
2022-10-03T19:18:16.262Z,95728
2022-10-03T19:21:41.830Z,95734
2022-10-03T19:25:06.786Z,95737
2022-10-03T19:28:32.166Z,95742
2022-10-03T19:31:57.424Z,95750
2022-10-03T19:35:22.633Z,95745
2022-10-03T19:38:47.910Z,95746
2022-10-03T19:42:13.114Z,95749
2022-10-03T19:45:38.366Z,95755
2022-10-03T19:49:03.608Z,95762
2022-10-03T19:52:28.841Z,95765
2022-10-03T19:55:54.133Z,95763
2022-10-03T19:59:19.332Z,95762
2022-10-03T20:02:44.578Z,95760
2022-10-03T20:06:09.817Z,95765
2022-10-03T20:09:35.038Z,95764
2022-10-03T20:13:00.229Z,95767
2022-10-03T20:16:25.452Z,95764
2022-10-03T20:19:50.598Z,95760
2022-10-03T20:23:15.736Z,95759
2022-10-03T20:26:40.903Z,95760
2022-10-03T20:30:06.099Z,95752
2022-10-03T20:33:31.261Z,95750
2022-10-03T20:36:57.370Z,95745
2022-10-03T20:40:22.535Z,95744
2022-10-03T20:43:47.714Z,95745
2022-10-03T20:47:12.894Z,95740
2022-10-03T20:50:38.058Z,95736
2022-10-03T20:54:03.229Z,95738
2022-10-03T20:57:28.389Z,95737
2022-10-03T21:00:53.679Z,95736
2022-10-03T21:04:18.782Z,95743
2022-10-03T21:07:43.936Z,95746
2022-10-03T21:11:09.085Z,95743
2022-10-03T21:14:34.254Z,95744
2022-10-03T21:17:59.413Z,95749
2022-10-03T21:21:24.637Z,95745
2022-10-03T21:24:49.818Z,95738
2022-10-03T21:28:15.044Z,95743
2022-10-03T21:31:40.429Z,95738
2022-10-03T21:35:05.346Z,95737
2022-10-03T21:38:30.531Z,95736
2022-10-03T21:41:55.671Z,95739
2022-10-03T21:45:20.840Z,95736
2022-10-03T21:48:46.016Z,95735
2022-10-03T21:52:11.193Z,95729
2022-10-03T21:55:51.578Z,95731
2022-10-03T21:59:01.548Z,95723
2022-10-03T22:02:26.739Z,95720
2022-10-03T22:05:51.901Z,95722
2022-10-03T22:09:17.090Z,95720
2022-10-03T22:12:42.279Z,95719
2022-10-03T22:16:07.508Z,95718
2022-10-03T22:19:32.595Z,95715
2022-10-03T22:22:57.759Z,95709
2022-10-03T22:26:22.935Z,95706
2022-10-03T22:29:48.146Z,95706
2022-10-03T22:33:13.289Z,95701
2022-10-03T22:36:38.468Z,95697
2022-10-03T22:40:03.642Z,95688
2022-10-03T22:43:28.820Z,95693
2022-10-03T22:46:54.018Z,95694
2022-10-03T22:50:19.166Z,95680
2022-10-03T22:53:44.355Z,95681
2022-10-03T22:57:09.526Z,95682
2022-10-03T23:00:34.713Z,95686
2022-10-03T23:04:00.036Z,95684
2022-10-03T23:07:25.037Z,95693
2022-10-03T23:10:50.222Z,95688
2022-10-03T23:14:15.405Z,95689
2022-10-03T23:17:40.568Z,95690
2022-10-03T23:21:05.754Z,95683
2022-10-03T23:24:30.913Z,95675
2022-10-03T23:27:56.142Z,95673
2022-10-03T23:31:21.323Z,95672
2022-10-03T23:34:46.429Z,95675
2022-10-03T23:38:11.603Z,95675
2022-10-03T23:41:36.744Z,95675
2022-10-03T23:45:01.931Z,95679
2022-10-03T23:48:27.156Z,95680
2022-10-03T23:51:52.254Z,95678
2022-10-03T23:55:17.438Z,95672
2022-10-03T23:58:42.593Z,95672
